Home > Products > Valid Products > MTR

000
SAUS45 KABQ 142054
MTRCQC
METAR KCQC 142053Z AUTO 31020G31KT 10SM CLR 13/M15 A2997 RMK AO2 PK
WND 29031/2041 SLP101 T01331150 56030





000
SAUS45 KABQ 142054
MTRTCS
METAR KTCS 142053Z AUTO 12006KT 10SM CLR 21/M14 A2998 RMK AO2 SLP095
T02061144 58035 TSNO





000
SAUS45 KABQ 142053
MTRABQ
METAR KABQ 142052Z 28006KT 10SM BKN170 BKN220 17/M11 A3000 RMK AO2
SLP116 T01671111 58036





000
SAUS45 KABQ 141958 COR
MTRCQC
METAR KCQC 141953Z AUTO 27022G27KT 10SM CLR 14/M13 A2999 RMK AO2 PK
WND 29027/1938 SLP111 T01391133





000
SAUS45 KABQ 141956 COR
MTRCQC
METAR KCQC 141953Z AUTO 27022G27KT 10SM CLR 14/M13 A2999 RMK AO2 PK
WND 29027/1938 SLP111 T01391133





000
SAUS45 KABQ 141955 COR
MTRCQC
METAR KCQC 141953Z AUTO 27022G27KT 10SM CLR 14/M13 A2999 RMK AO2 PK
WND 29027/1938 SLP111 T01391133





000
SAUS45 KABQ 141954
MTRTCS
METAR KTCS 141953Z AUTO 09009KT 10SM CLR 19/M12 A3001 RMK AO2 SLP109
T01941117 TSNO





000
SAUS45 KABQ 141954
MTRCQC
METAR KCQC 141953Z AUTO 27022G27KT 10SM CLR 14/M13 A2999 RMK AO2 PK
WND 29027/1938 SLP111 T01391133





000
SAUS45 KABQ 141954
MTRTCS
METAR KTCS 141953Z AUTO 09009KT 10SM CLR 19/M12 A3001 RMK AO2 SLP109
T01941117 TSNO





000
SAUS45 KABQ 141952
MTRABQ
METAR KABQ 141952Z VRB03KT 10SM BKN200 15/M09 A3004 RMK AO2 SLP130
T01501094





000
SAUS45 KABQ 141855
MTRTCS
METAR KTCS 141853Z AUTO 06006KT 10SM CLR 18/M12 A3008 RMK AO2 SLP131
T01781117 TSNO





000
SAUS45 KABQ 141854
MTRCQC
METAR KCQC 141853Z AUTO 26016KT 10SM CLR 12/M09 A3004 RMK AO2 SLP129
T01221094





000
SAUS45 KABQ 141854
MTRCQC
METAR KCQC 141853Z AUTO 26016KT 10SM CLR 12/M09 A3004 RMK AO2 SLP129
T01221094





000
SAUS45 KABQ 141852
MTRABQ
METAR KABQ 141852Z 00000KT 10SM BKN230 14/M09 A3009 RMK AO2 SLP149
T01391089 $





000
SAUS45 KABQ 141852
MTRABQ
METAR KABQ 141852Z 00000KT 10SM BKN230 14/M09 A3009 RMK AO2 SLP149
T01391089 $





000
SAUS45 KABQ 141755
MTRCQC
METAR KCQC 141753Z AUTO 28010KT 10SM CLR 11/M08 A3008 RMK AO2 SLP143
T01061078 10106 21006 58008





000
SAUS45 KABQ 141755
MTRCQC
METAR KCQC 141753Z AUTO 28010KT 10SM CLR 11/M08 A3008 RMK AO2 SLP143
T01061078 10106 21006 58008





000
SAUS45 KABQ 141754
MTRTCS
METAR KTCS 141753Z AUTO 07005KT 10SM CLR 16/M11 A3010 RMK AO2 SLP141
T01611111 10161 20050 50003 TSNO





000
SAUS45 KABQ 141754
MTRTCS
METAR KTCS 141753Z AUTO 07005KT 10SM CLR 16/M11 A3010 RMK AO2 SLP141
T01611111 10161 20050 50003 TSNO





000
SAUS45 KABQ 141752
MTRABQ
METAR KABQ 141752Z 30004KT 10SM SCT250 14/M08 A3012 RMK AO2 SLP158
T01391083 10139 20011 58004 $





000
SAUS45 KABQ 141752
MTRABQ
METAR KABQ 141752Z 30004KT 10SM SCT250 14/M08 A3012 RMK AO2 SLP158
T01391083 10139 20011 58004 $





000
SAUS45 KABQ 141654
MTRCQC
METAR KCQC 141653Z AUTO 30011KT 10SM CLR 08/M08 A3011 RMK AO2 SLP158
T00781078





000
SAUS45 KABQ 141654
MTRTCS
METAR KTCS 141653Z AUTO 04008KT 10SM CLR 14/M11 A3011 RMK AO2 SLP147
T01441106 TSNO





000
SAUS45 KABQ 141653
MTRABQ
METAR KABQ 141652Z 00000KT 10SM FEW250 11/M08 A3014 RMK AO2 SLP168
T01111083 $





000
SAUS45 KABQ 141554
MTRCQC
METAR KCQC 141553Z AUTO 32009KT 10SM CLR 06/M08 A3012 RMK AO2 SLP171
T00561078





000
SAUS45 KABQ 141554
MTRTCS
METAR KTCS 141553Z AUTO 05004KT 10SM CLR 11/M08 A3010 RMK AO2 SLP149
T01061083 TSNO





000
SAUS45 KABQ 141553
MTRABQ
METAR KABQ 141552Z 08005KT 10SM FEW170 FEW250 10/M08 A3016 RMK AO2
SLP174 T01001083 $





000
SAUS45 KABQ 141454
MTRCQC
METAR KCQC 141453Z AUTO VRB03KT 10SM CLR 03/M08 A3011 RMK AO2 SLP176
T00281083 53009





000
SAUS45 KABQ 141454
MTRTCS
METAR KTCS 141453Z AUTO 33004KT 10SM CLR 09/M11 A3009 RMK AO2 SLP149
T00891106 50010 TSNO





000
SAUS45 KABQ 141454
MTRCQC
METAR KCQC 141453Z AUTO VRB03KT 10SM CLR 03/M08 A3011 RMK AO2 SLP176
T00281083 53009





000
SAUS45 KABQ 141454
MTRTCS
METAR KTCS 141453Z AUTO 33004KT 10SM CLR 09/M11 A3009 RMK AO2 SLP149
T00891106 50010 TSNO





000
SAUS45 KABQ 141452
MTRABQ
METAR KABQ 141452Z 00000KT 10SM SCT130 BKN170 06/M08 A3014 RMK AO2
SLP173 T00561078 53009 $





000
SAUS45 KABQ 141354
MTRTCS
METAR KTCS 141353Z AUTO 01003KT 10SM CLR 06/M12 A3009 RMK AO2 SLP147
T00611117 TSNO





000
SAUS45 KABQ 141354
MTRTCS
METAR KTCS 141353Z AUTO 01003KT 10SM CLR 06/M12 A3009 RMK AO2 SLP147
T00611117 TSNO





000
SAUS45 KABQ 141354
MTRCQC
METAR KCQC 141353Z AUTO 29012KT 10SM CLR 01/M07 A3008 RMK AO2 SLP162
T00061072





000
SAUS45 KABQ 141352
MTRABQ
METAR KABQ 141352Z 14006KT 10SM SCT130 BKN200 01/M09 A3011 RMK AO2
SLP172 T00111089 $





000
SAUS45 KABQ 141352
MTRABQ
METAR KABQ 141352Z 14006KT 10SM SCT130 BKN200 01/M09 A3011 RMK AO2
SLP172 T00111089 $





000
SAUS45 KABQ 141254
MTRTCS
METAR KTCS 141253Z AUTO 32008KT 10SM CLR 08/M11 A3008 RMK AO2 SLP136
T00781111 TSNO





000
SAUS45 KABQ 141254
MTRCQC
METAR KCQC 141253Z AUTO 27006KT 10SM CLR M01/M08 A3007 RMK AO2
SLP159 T10061083





000
SAUS45 KABQ 141254
MTRTCS
METAR KTCS 141253Z AUTO 32008KT 10SM CLR 08/M11 A3008 RMK AO2 SLP136
T00781111 TSNO





000
SAUS45 KABQ 141254
MTRCQC
METAR KCQC 141253Z AUTO 27006KT 10SM CLR M01/M08 A3007 RMK AO2
SLP159 T10061083





000
SAUS45 KABQ 141252
MTRABQ
METAR KABQ 141252Z 16003KT 10SM FEW130 OVC200 04/M09 A3012 RMK AO2
SLP163 T00391094 $





000
SAUS45 KABQ 141252
MTRABQ
METAR KABQ 141252Z 16003KT 10SM FEW130 OVC200 04/M09 A3012 RMK AO2
SLP163 T00391094 $





000
SAUS45 KABQ 141154
MTRCQC
METAR KCQC 141153Z AUTO 29010KT 10SM CLR M01/M09 A3008 RMK AO2
SLP148 T10061089 10044 21006 55003





000
SAUS45 KABQ 141154
MTRTCS
METAR KTCS 141153Z AUTO 32009KT 10SM CLR 08/M11 A3005 RMK AO2 SLP123
T00781111 10128 20056 56008 TSNO





000
SAUS45 KABQ 141154
MTRCQC
METAR KCQC 141153Z AUTO 29010KT 10SM CLR M01/M09 A3008 RMK AO2
SLP148 T10061089 10044 21006 55003





000
SAUS45 KABQ 141154
MTRTCS
METAR KTCS 141153Z AUTO 32009KT 10SM CLR 08/M11 A3005 RMK AO2 SLP123
T00781111 10128 20056 56008 TSNO





000
SAUS45 KABQ 141152
MTRABQ
METAR KABQ 141152Z 14005KT 10SM FEW130 BKN240 02/M10 A3011 RMK AO2
SLP158 T00221100 10111 20022 55002 $





000
SAUS45 KABQ 141152
MTRABQ
METAR KABQ 141152Z 14005KT 10SM FEW130 BKN240 02/M10 A3011 RMK AO2
SLP158 T00221100 10111 20022 55002 $





000
SAUS45 KABQ 141055
MTRTCS
METAR KTCS 141053Z AUTO 34005KT 10SM CLR 08/M11 A3006 RMK AO2 SLP122
T00781111 TSNO





000
SAUS45 KABQ 141055
MTRTCS
METAR KTCS 141053Z AUTO 34005KT 10SM CLR 08/M11 A3006 RMK AO2 SLP122
T00781111 TSNO





000
SAUS45 KABQ 141054
MTRCQC
METAR KCQC 141053Z AUTO 31011KT 10SM CLR 01/M09 A3007 RMK AO2 SLP136
T00111089





000
SAUS45 KABQ 141054
MTRCQC
METAR KCQC 141053Z AUTO 31011KT 10SM CLR 01/M09 A3007 RMK AO2 SLP136
T00111089





000
SAUS45 KABQ 141052
MTRABQ
METAR KABQ 141052Z 31003KT 10SM FEW140 BKN220 07/M09 A3011 RMK AO2
SLP150 T00671094 $





000
SAUS45 KABQ 141052
MTRABQ
METAR KABQ 141052Z 31003KT 10SM FEW140 BKN220 07/M09 A3011 RMK AO2
SLP150 T00671094 $





000
SAUS45 KABQ 140955
MTRCQC
METAR KCQC 140953Z AUTO 28007KT 10SM CLR M01/M09 A3008 RMK AO2
SLP144 T10061089





000
SAUS45 KABQ 140954
MTRTCS
METAR KTCS 140953Z AUTO 32010KT 10SM CLR 09/M12 A3007 RMK AO2 SLP126
T00941117 TSNO





000
SAUS45 KABQ 140952
MTRABQ
METAR KABQ 140952Z 27004KT 10SM SCT150 BKN240 08/M09 A3011 RMK AO2
SLP150 T00781094 $





000
SAUS45 KABQ 140854
MTRCQC
METAR KCQC 140853Z AUTO 32013KT 10SM CLR 03/M10 A3009 RMK AO2 SLP133
T00281100 56008





000
SAUS45 KABQ 140854
MTRTCS
METAR KTCS 140853Z AUTO 34010G18KT 10SM CLR 11/M12 A3008 RMK AO2
SLP129 T01061117 55001 TSNO





000
SAUS45 KABQ 140852
MTRABQ
METAR KABQ 140852Z 00000KT 10SM SCT130 BKN240 07/M11 A3011 RMK AO2
SLP154 T00721106 55003 $





000
SAUS45 KABQ 140852
MTRABQ
METAR KABQ 140852Z 00000KT 10SM SCT130 BKN240 07/M11 A3011 RMK AO2
SLP154 T00721106 55003 $





000
SAUS45 KABQ 140755
MTRTCS
METAR KTCS 140753Z AUTO 31012KT 10SM CLR 11/M12 A3008 RMK AO2 SLP130
T01061117 TSNO





000
SAUS45 KABQ 140754
MTRCQC
METAR KCQC 140753Z AUTO 31006KT 10SM CLR 02/M09 A3009 RMK AO2 SLP138
T00171089





000
SAUS45 KABQ 140753
MTRABQ
METAR KABQ 140752Z 33006KT 10SM FEW130 FEW250 09/M11 A3010 RMK AO2
SLP147 T00941106 $





000
SAUS45 KABQ 140654
MTRTCS
METAR KTCS 140653Z AUTO 31010KT 10SM CLR 12/M11 A3009 RMK AO2 SLP134
T01171111 402280033 TSNO





000
SAUS45 KABQ 140654
MTRCQC
METAR KCQC 140653Z AUTO 31014KT 10SM CLR 03/M08 A3010 RMK AO2 SLP140
T00331083 401720006





000
SAUS45 KABQ 140653
MTRABQ
METAR KABQ 140652Z 01008KT 10SM FEW250 09/M09 A3011 RMK AO2 SLP158
T00941094 402061006 $





000
SAUS45 KABQ 140554
MTRTCS
METAR KTCS 140553Z AUTO 31011KT 10SM CLR 13/M12 A3009 RMK AO2 SLP135
T01281117 10222 20117 50003 TSNO





000
SAUS45 KABQ 140554
MTRCQC
METAR KCQC 140553Z AUTO 30012KT 10SM CLR 04/M08 A3012 RMK AO2 SLP149
T00441078 10139 20039 55004





000
SAUS45 KABQ 140552
MTRABQ
METAR KABQ 140552Z 35008KT 10SM SCT250 11/M09 A3013 RMK AO2 SLP162
T01111089 10194 20111 51003 $





000
SAUS45 KABQ 140454
MTRCQC
METAR KCQC 140453Z AUTO 30013KT 10SM CLR 06/M09 A3011 RMK AO2 SLP148
T00561089





000
SAUS45 KABQ 140454
MTRTCS
METAR KTCS 140453Z AUTO 30011KT 10SM CLR 13/M12 A3009 RMK AO2 SLP144
T01281122 TSNO





000
SAUS45 KABQ 140452
MTRABQ
METAR KABQ 140452Z 36007KT 10SM FEW250 11/M07 A3012 RMK AO2 SLP166
T01111072 $





000
SAUS45 KABQ 140452
MTRABQ
METAR KABQ 140452Z 36007KT 10SM FEW250 11/M07 A3012 RMK AO2 SLP166
T01111072 $





000
SAUS45 KABQ 140354
MTRCQC
METAR KCQC 140353Z AUTO 29013KT 10SM CLR 06/M07 A3012 RMK AO2 SLP156
T00561072





000
SAUS45 KABQ 140354
MTRTCS
METAR KTCS 140353Z AUTO 30010KT 10SM CLR 14/M13 A3009 RMK AO2 SLP146
T01391133 TSNO





000
SAUS45 KABQ 140354
MTRTCS
METAR KTCS 140353Z AUTO 30010KT 10SM CLR 14/M13 A3009 RMK AO2 SLP146
T01391133 TSNO





000
SAUS45 KABQ 140354
MTRCQC
METAR KCQC 140353Z AUTO 29013KT 10SM CLR 06/M07 A3012 RMK AO2 SLP156
T00561072





000
SAUS45 KABQ 140352
MTRABQ
METAR KABQ 140352Z 33010KT 10SM SCT250 13/M08 A3012 RMK AO2 SLP169
T01281083 $





000
SAUS45 KABQ 140255
MTRTCS
METAR KTCS 140253Z AUTO 27009KT 10SM CLR 13/M14 A3008 RMK AO2 SLP147
T01331144 53006 TSNO





000
SAUS45 KABQ 140255
MTRTCS
METAR KTCS 140253Z AUTO 27009KT 10SM CLR 13/M14 A3008 RMK AO2 SLP147
T01331144 53006 TSNO





000
SAUS45 KABQ 140254
MTRCQC
METAR KCQC 140253Z AUTO 28010KT 10SM CLR 05/M07 A3013 RMK AO2 SLP170
T00501067 53002





000
SAUS45 KABQ 140254
MTRCQC
METAR KCQC 140253Z AUTO 28010KT 10SM CLR 05/M07 A3013 RMK AO2 SLP170
T00501067 53002





000
SAUS45 KABQ 140253
MTRABQ
METAR KABQ 140252Z 33006KT 10SM CLR 14/M10 A3011 RMK AO2 SLP174
T01391100 53009 $





000
SAUS45 KABQ 140154
MTRCQC
METAR KCQC 140153Z AUTO 27014KT 10SM CLR 08/M08 A3012 RMK AO2 SLP173
T00831078





000
SAUS45 KABQ 140154
MTRCQC
METAR KCQC 140153Z AUTO 27014KT 10SM CLR 08/M08 A3012 RMK AO2 SLP173
T00831078





000
SAUS45 KABQ 140154
MTRTCS
METAR KTCS 140153Z AUTO 10003KT 10SM CLR 17/M13 A3007 RMK AO2 SLP142
T01671133 TSNO





000
SAUS45 KABQ 140154
MTRTCS
METAR KTCS 140153Z AUTO 10003KT 10SM CLR 17/M13 A3007 RMK AO2 SLP142
T01671133 TSNO





000
SAUS45 KABQ 140152
MTRABQ
METAR KABQ 140152Z 30006KT 10SM FEW250 16/M11 A3011 RMK AO2 SLP164
T01561106 $





000
SAUS45 KABQ 140152
MTRABQ
METAR KABQ 140152Z 30006KT 10SM FEW250 16/M11 A3011 RMK AO2 SLP164
T01561106 $





000
SAUS45 KABQ 140054
MTRCQC
METAR KCQC 140053Z AUTO 27014KT 10SM CLR 09/M07 A3011 RMK AO2 SLP167
T00941072





000
SAUS45 KABQ 140054
MTRTCS
METAR KTCS 140053Z AUTO 17007KT 10SM CLR 19/M14 A3006 RMK AO2 SLP133
T01941144 TSNO





000
SAUS45 KABQ 140054
MTRTCS
METAR KTCS 140053Z AUTO 17007KT 10SM CLR 19/M14 A3006 RMK AO2 SLP133
T01941144 TSNO





000
SAUS45 KABQ 140054
MTRCQC
METAR KCQC 140053Z AUTO 27014KT 10SM CLR 09/M07 A3011 RMK AO2 SLP167
T00941072





000
SAUS45 KABQ 140052
MTRABQ
METAR KABQ 140052Z 19007KT 10SM FEW250 17/M11 A3008 RMK AO2 SLP155
T01721106 $





000
SAUS45 KABQ 140052
MTRABQ
METAR KABQ 140052Z 19007KT 10SM FEW250 17/M11 A3008 RMK AO2 SLP155
T01721106 $





000
SAUS45 KABQ 132354
MTRTCS
METAR KTCS 132353Z AUTO 19011KT 10SM CLR 22/M15 A3005 RMK AO2 SLP124
T02221150 10228 20161 56023 TSNO





000
SAUS45 KABQ 132354
MTRCQC
METAR KCQC 132353Z AUTO 27019G25KT 10SM CLR 14/M09 A3012 RMK AO2 PK
WND 28028/2300 SLP151 T01391094 10172 20133 56009





000
SAUS45 KABQ 132354
MTRTCS
METAR KTCS 132353Z AUTO 19011KT 10SM CLR 22/M15 A3005 RMK AO2 SLP124
T02221150 10228 20161 56023 TSNO





000
SAUS45 KABQ 132354
MTRCQC
METAR KCQC 132353Z AUTO 27019G25KT 10SM CLR 14/M09 A3012 RMK AO2 PK
WND 28028/2300 SLP151 T01391094 10172 20133 56009





000
SAUS45 KABQ 132352
MTRABQ
METAR KABQ 132352Z 20007KT 10SM FEW250 19/M11 A3009 RMK AO2 SLP153
T01941106 10206 20117 56018 $





000
SAUS45 KABQ 132352
MTRABQ
METAR KABQ 132352Z 20007KT 10SM FEW250 19/M11 A3009 RMK AO2 SLP153
T01941106 10206 20117 56018 $





000
SAUS45 KABQ 132254
MTRTCS
METAR KTCS 132253Z AUTO 18011KT 10SM CLR 23/M14 A3008 RMK AO2 SLP133
T02281139 TSNO





000
SAUS45 KABQ 132254
MTRCQC
METAR KCQC 132253Z AUTO 27021G27KT 10SM CLR 16/M09 A3013 RMK AO2 PK
WND 27027/2251 SLP151 T01561094





000
SAUS45 KABQ 132254
MTRCQC
METAR KCQC 132253Z AUTO 27021G27KT 10SM CLR 16/M09 A3013 RMK AO2 PK
WND 27027/2251 SLP151 T01561094





000
SAUS45 KABQ 132254
MTRTCS
METAR KTCS 132253Z AUTO 18011KT 10SM CLR 23/M14 A3008 RMK AO2 SLP133
T02281139 TSNO





000
SAUS45 KABQ 132252
MTRABQ
METAR KABQ 132252Z 20006KT 10SM FEW250 20/M10 A3010 RMK AO2 SLP150
T02001100 $





000
SAUS45 KABQ 132154
MTRTCS
METAR KTCS 132153Z AUTO 18010KT 10SM CLR 22/M13 A3010 RMK AO2 SLP140
T02221128 TSNO





000
SAUS45 KABQ 132154
MTRCQC
METAR KCQC 132153Z AUTO 28020G26KT 10SM CLR 16/M10 A3014 RMK AO2 PK
WND 28029/2136 SLP148 T01611100





000
SAUS45 KABQ 132154
MTRTCS
METAR KTCS 132153Z AUTO 18010KT 10SM CLR 22/M13 A3010 RMK AO2 SLP140
T02221128 TSNO





000
SAUS45 KABQ 132154
MTRCQC
METAR KCQC 132153Z AUTO 28020G26KT 10SM CLR 16/M10 A3014 RMK AO2 PK
WND 28029/2136 SLP148 T01611100





000
SAUS45 KABQ 132152
MTRABQ
METAR KABQ 132152Z 00000KT 10SM FEW250 19/M09 A3012 RMK AO2 SLP156
T01891094 $





000
SAUS45 KABQ 132055
MTRCQC
METAR KCQC 132053Z AUTO 27016G26KT 10SM CLR 17/M10 A3016 RMK AO2 PK
WND 29028/2023 SLP157 T01671100 58032





000
SAUS45 KABQ 132055
MTRCQC
METAR KCQC 132053Z AUTO 27016G26KT 10SM CLR 17/M10 A3016 RMK AO2 PK
WND 29028/2023 SLP157 T01671100 58032





000
SAUS45 KABQ 132054
MTRTCS
METAR KTCS 132053Z AUTO 18011G16KT 10SM CLR 21/M15 A3013 RMK AO2
SLP152 T02111150 58036 TSNO





000
SAUS45 KABQ 132053
MTRABQ
METAR KABQ 132052Z 24006KT 10SM FEW250 18/M10 A3015 RMK AO2 SLP167
T01831100 58038 $





000
SAUS45 KABQ 131955
MTRTCS
METAR KTCS 131953Z AUTO 19009KT 10SM CLR 19/M13 A3018 RMK AO2 SLP169
T01941133 TSNO





000
SAUS45 KABQ 131954
MTRCQC
METAR KCQC 131953Z AUTO 28014G23KT 10SM CLR 17/M08 A3019 RMK AO2
SLP168 T01671083





000
SAUS45 KABQ 131952
MTRABQ
METAR KABQ 131952Z 21006KT 10SM CLR 17/M10 A3020 RMK AO2 SLP184
T01671100





000
SAUS45 KABQ 131952
MTRABQ
METAR KABQ 131952Z 21006KT 10SM CLR 17/M10 A3020 RMK AO2 SLP184
T01671100





000
SAUS45 KABQ 131854
MTRCQC
METAR KCQC 131853Z AUTO 25013KT 10SM CLR 15/M08 A3024 RMK AO2 SLP187
T01501078





000
SAUS45 KABQ 131854
MTRTCS
METAR KTCS 131853Z AUTO 18006KT 10SM CLR 18/M11 A3022 RMK AO2 SLP189
T01831106 TSNO





000
SAUS45 KABQ 131854
MTRTCS
METAR KTCS 131853Z AUTO 18006KT 10SM CLR 18/M11 A3022 RMK AO2 SLP189
T01831106 TSNO





000
SAUS45 KABQ 131854
MTRCQC
METAR KCQC 131853Z AUTO 25013KT 10SM CLR 15/M08 A3024 RMK AO2 SLP187
T01501078





000
SAUS45 KABQ 131852
MTRABQ
METAR KABQ 131852Z 22004KT 10SM FEW150 14/M07 A3024 RMK AO2 SLP205
T01391072





000
SAUS45 KABQ 131852
MTRABQ
METAR KABQ 131852Z 22004KT 10SM FEW150 14/M07 A3024 RMK AO2 SLP205
T01391072





000
SAUS45 KABQ 131755
MTRCQC
METAR KCQC 131753Z AUTO 24016KT 10SM CLR 13/M09 A3027 RMK AO2 SLP198
T01331089 10139 20006 58009





000
SAUS45 KABQ 131755
MTRCQC
METAR KCQC 131753Z AUTO 24016KT 10SM CLR 13/M09 A3027 RMK AO2 SLP198
T01331089 10139 20006 58009





000
SAUS45 KABQ 131754
MTRTCS
METAR KTCS 131753Z AUTO 00000KT 10SM CLR 16/M11 A3026 RMK AO2 SLP204
T01611111 10161 20033 58010 TSNO





000
SAUS45 KABQ 131754
MTRTCS
METAR KTCS 131753Z AUTO 00000KT 10SM CLR 16/M11 A3026 RMK AO2 SLP204
T01611111 10161 20033 58010 TSNO





000
SAUS45 KABQ 131752
MTRABQ
METAR KABQ 131752Z 24003KT 10SM FEW150 12/M06 A3028 RMK AO2 SLP221
T01171061 10117 21006 58012





000
SAUS45 KABQ 131752
MTRABQ
METAR KABQ 131752Z 24003KT 10SM FEW150 12/M06 A3028 RMK AO2 SLP221
T01171061 10117 21006 58012





000
SAUS45 KABQ 131654
MTRCQC
METAR KCQC 131653Z AUTO 24014KT 10SM CLR 12/M09 A3029 RMK AO2 SLP209
T01221089





000
SAUS45 KABQ 131654
MTRTCS
METAR KTCS 131653Z AUTO 06005KT 10SM CLR 13/M11 A3028 RMK AO2 SLP214
T01281111 TSNO





000
SAUS45 KABQ 131652
MTRABQ
METAR KABQ 131652Z 29003KT 10SM FEW150 09/M06 A3030 RMK AO2 SLP233
T00891056





000
SAUS45 KABQ 131554
MTRCQC
METAR KCQC 131553Z AUTO 24014KT 10SM CLR 10/M09 A3030 RMK AO2 SLP218
T01001089





000
SAUS45 KABQ 131554
MTRTCS
METAR KTCS 131553Z AUTO 35003KT 10SM CLR 09/M11 A3029 RMK AO2 SLP225
T00891106 TSNO





000
SAUS45 KABQ 131554
MTRTCS
METAR KTCS 131553Z AUTO 35003KT 10SM CLR 09/M11 A3029 RMK AO2 SLP225
T00891106 TSNO





000
SAUS45 KABQ 131552
MTRABQ
METAR KABQ 131552Z 00000KT 10SM FEW150 06/M06 A3032 RMK AO2 SLP245
T00561056





000
SAUS45 KABQ 131454
MTRTCS
METAR KTCS 131453Z AUTO 33004KT 10SM CLR 06/M11 A3029 RMK AO2 SLP222
T00611111 51006 TSNO





000
SAUS45 KABQ 131454
MTRCQC
METAR KCQC 131453Z AUTO 24009KT 10SM CLR 07/M08 A3031 RMK AO2 SLP226
T00671078 53001





000
SAUS45 KABQ 131452
MTRABQ
METAR KABQ 131452Z 00000KT 10SM FEW170 01/M07 A3032 RMK AO2 SLP251
T00111067 53005





000
SAUS45 KABQ 131354
MTRCQC
METAR KCQC 131353Z AUTO 24011KT 10SM CLR 01/M07 A3030 RMK AO2 SLP237
T00111072





000
SAUS45 KABQ 131354
MTRTCS
METAR KTCS 131353Z AUTO 31007KT 10SM CLR 04/M12 A3029 RMK AO2 SLP222
T00441117 TSNO





000
SAUS45 KABQ 131353
MTRABQ
METAR KABQ 131352Z 36006KT 10SM FEW170 03/M06 A3031 RMK AO2 SLP237
T00281061





000
SAUS45 KABQ 131254
MTRCQC
METAR KCQC 131253Z AUTO 26010KT 10SM CLR 01/M07 A3030 RMK AO2 SLP228
T00111072





000
SAUS45 KABQ 131254
MTRTCS
METAR KTCS 131253Z AUTO 36006KT 10SM CLR 05/M12 A3027 RMK AO2 SLP207
T00501117 TSNO





000
SAUS45 KABQ 131254
MTRCQC
METAR KCQC 131253Z AUTO 26010KT 10SM CLR 01/M07 A3030 RMK AO2 SLP228
T00111072





000
SAUS45 KABQ 131254
MTRTCS
METAR KTCS 131253Z AUTO 36006KT 10SM CLR 05/M12 A3027 RMK AO2 SLP207
T00501117 TSNO





000
SAUS45 KABQ 131252
MTRABQ
METAR KABQ 131252Z 00000KT 10SM CLR 02/M07 A3030 RMK AO2 SLP230
T00171067





000
SAUS45 KABQ 131252
MTRABQ
METAR KABQ 131252Z 00000KT 10SM CLR 02/M07 A3030 RMK AO2 SLP230
T00171067





000
SAUS45 KABQ 131155
MTRTCS
METAR KTCS 131153Z AUTO 34006KT 10SM CLR 07/M12 A3027 RMK AO2 SLP199
T00671122 10083 20056 55002 TSNO





000
SAUS45 KABQ 131154
MTRCQC
METAR KCQC 131153Z AUTO 27009KT 10SM CLR 03/M07 A3030 RMK AO2 SLP208
T00331072 10067 20017 56009





000
SAUS45 KABQ 131153
MTRABQ
METAR KABQ 131152Z 00000KT 10SM CLR 00/M08 A3030 RMK AO2 SLP232
T00001078 10100 20000 56004





000
SAUS45 KABQ 131054
MTRCQC
METAR KCQC 131053Z AUTO 23006KT 10SM CLR 03/M08 A3030 RMK AO2 SLP207
T00331083





000
SAUS45 KABQ 131054
MTRTCS
METAR KTCS 131053Z AUTO 30008KT 10SM CLR 06/M12 A3027 RMK AO2 SLP201
T00561122 TSNO





000
SAUS45 KABQ 131052
MTRABQ
METAR KABQ 131052Z 00000KT 10SM CLR 04/M06 A3030 RMK AO2 SLP224
T00441061





000
SAUS45 KABQ 131052
MTRABQ
METAR KABQ 131052Z 00000KT 10SM CLR 04/M06 A3030 RMK AO2 SLP224
T00441061





000
SAUS45 KABQ 130954
MTRTCS
METAR KTCS 130953Z AUTO 30008KT 10SM CLR 07/M12 A3026 RMK AO2 SLP198
T00671122 TSNO





000
SAUS45 KABQ 130954
MTRTCS
METAR KTCS 130953Z AUTO 30008KT 10SM CLR 07/M12 A3026 RMK AO2 SLP198
T00671122 TSNO





000
SAUS45 KABQ 130954
MTRCQC
METAR KCQC 130953Z AUTO 25004KT 10SM CLR 05/M08 A3032 RMK AO2 SLP209
T00501083





000
SAUS45 KABQ 130952
MTRABQ
METAR KABQ 130952Z 01009KT 10SM CLR 06/M06 A3029 RMK AO2 SLP217
T00561061





000
SAUS45 KABQ 130854
MTRCQC
METAR KCQC 130853Z AUTO 21007KT 10SM CLR 03/M07 A3034 RMK AO2 SLP221
T00281072 56009





000
SAUS45 KABQ 130854
MTRTCS
METAR KTCS 130853Z AUTO 31008KT 10SM CLR 07/M13 A3028 RMK AO2 SLP204
T00721128 56006 TSNO





000
SAUS45 KABQ 130854
MTRCQC
METAR KCQC 130853Z AUTO 21007KT 10SM CLR 03/M07 A3034 RMK AO2 SLP221
T00281072 56009





000
SAUS45 KABQ 130854
MTRTCS
METAR KTCS 130853Z AUTO 31008KT 10SM CLR 07/M13 A3028 RMK AO2 SLP204
T00721128 56006 TSNO





000
SAUS45 KABQ 130852
MTRABQ
METAR KABQ 130852Z 00000KT 10SM CLR 06/M07 A3031 RMK AO2 SLP228
T00561067 58004





000
SAUS45 KABQ 130852
MTRABQ
METAR KABQ 130852Z 00000KT 10SM CLR 06/M07 A3031 RMK AO2 SLP228
T00561067 58004





000
SAUS45 KABQ 130754
MTRCQC
METAR KCQC 130753Z AUTO 19009KT 10SM CLR 04/M07 A3034 RMK AO2 SLP224
T00441067





000
SAUS45 KABQ 130754
MTRTCS
METAR KTCS 130753Z AUTO 30009KT 10SM CLR 08/M13 A3028 RMK AO2 SLP206
T00781133 TSNO





000
SAUS45 KABQ 130752
MTRABQ
METAR KABQ 130752Z 01007KT 10SM CLR 07/M07 A3032 RMK AO2 SLP227
T00721067





000
SAUS45 KABQ 130654
MTRTCS
METAR KTCS 130653Z AUTO 29010KT 10SM CLR 07/M14 A3029 RMK AO2 SLP212
T00721144 402280028 TSNO





000
SAUS45 KABQ 130654
MTRCQC
METAR KCQC 130653Z AUTO 18008KT 10SM CLR 04/M07 A3036 RMK AO2 SLP236
T00441067 401780000





000
SAUS45 KABQ 130654
MTRCQC
METAR KCQC 130653Z AUTO 18008KT 10SM CLR 04/M07 A3036 RMK AO2 SLP236
T00441067 401780000





000
SAUS45 KABQ 130654
MTRTCS
METAR KTCS 130653Z AUTO 29010KT 10SM CLR 07/M14 A3029 RMK AO2 SLP212
T00721144 402280028 TSNO





000
SAUS45 KABQ 130653
MTRABQ
METAR KABQ 130652Z 03006KT 10SM CLR 08/M07 A3032 RMK AO2 SLP232
T00781067 402000000





000
SAUS45 KABQ 130653
MTRABQ
METAR KABQ 130652Z 03006KT 10SM CLR 08/M07 A3032 RMK AO2 SLP232
T00781067 402000000





000
SAUS45 KABQ 130554
MTRTCS
METAR KTCS 130553Z AUTO 28009KT 10SM CLR 07/M15 A3030 RMK AO2 SLP221
T00721150 10217 20072 51007 TSNO





000
SAUS45 KABQ 130554
MTRCQC
METAR KCQC 130553Z AUTO 16004KT 10SM CLR 07/M08 A3037 RMK AO2 SLP239
T00671083 10161 20061 58001





000
SAUS45 KABQ 130554
MTRCQC
METAR KCQC 130553Z AUTO 16004KT 10SM CLR 07/M08 A3037 RMK AO2 SLP239
T00671083 10161 20061 58001





000
SAUS45 KABQ 130554
MTRTCS
METAR KTCS 130553Z AUTO 28009KT 10SM CLR 07/M15 A3030 RMK AO2 SLP221
T00721150 10217 20072 51007 TSNO





000
SAUS45 KABQ 130552
MTRABQ
METAR KABQ 130552Z 00000KT 10SM CLR 08/M07 A3033 RMK AO2 SLP242
T00781072 10189 20078 53006





000
SAUS45 KABQ 130552
MTRABQ
METAR KABQ 130552Z 00000KT 10SM CLR 08/M07 A3033 RMK AO2 SLP242
T00781072 10189 20078 53006





000
SAUS45 KABQ 130454
MTRCQC
METAR KCQC 130453Z AUTO 12005KT 10SM CLR 06/M07 A3038 RMK AO2 SLP245
T00611072





000
SAUS45 KABQ 130454
MTRTCS
METAR KTCS 130453Z AUTO 29008KT 10SM CLR 09/M15 A3029 RMK AO2 SLP220
T00941150 TSNO





000
SAUS45 KABQ 130452
MTRABQ
METAR KABQ 130452Z 00000KT 10SM CLR 09/M08 A3032 RMK AO2 SLP241
T00941078





000
SAUS45 KABQ 130354
MTRTCS
METAR KTCS 130353Z AUTO 30006KT 10SM CLR 09/M17 A3028 RMK AO2 SLP221
T00941167 TSNO





000
SAUS45 KABQ 130354
MTRCQC
METAR KCQC 130353Z AUTO 12004KT 10SM CLR 07/M07 A3038 RMK AO2 SLP252
T00671072





000
SAUS45 KABQ 130352
MTRABQ
METAR KABQ 130352Z 00000KT 10SM CLR 09/M07 A3031 RMK AO2 SLP244
T00941072





000
SAUS45 KABQ 130254
MTRCQC
METAR KCQC 130253Z AUTO 12006KT 10SM CLR 07/M06 A3038 RMK AO2 SLP254
T00721061 51010





000
SAUS45 KABQ 130254
MTRTCS
METAR KTCS 130253Z AUTO 24003KT 10SM CLR 13/M18 A3027 RMK AO2 SLP215
T01331178 53006 TSNO





000
SAUS45 KABQ 130254
MTRTCS
METAR KTCS 130253Z AUTO 24003KT 10SM CLR 13/M18 A3027 RMK AO2 SLP215
T01331178 53006 TSNO





000
SAUS45 KABQ 130254
MTRCQC
METAR KCQC 130253Z AUTO 12006KT 10SM CLR 07/M06 A3038 RMK AO2 SLP254
T00721061 51010





000
SAUS45 KABQ 130252
MTRABQ
METAR KABQ 130252Z 05005KT 10SM CLR 12/M07 A3031 RMK AO2 SLP244
T01221072 53007





000
SAUS45 KABQ 130252
MTRABQ
METAR KABQ 130252Z 05005KT 10SM CLR 12/M07 A3031 RMK AO2 SLP244
T01221072 53007





000
SAUS45 KABQ 130154
MTRCQC
METAR KCQC 130153Z AUTO 12006KT 10SM CLR 08/M06 A3037 RMK AO2 SLP257
T00831061





000
SAUS45 KABQ 130154
MTRTCS
METAR KTCS 130153Z AUTO 00000KT 10SM CLR 15/M18 A3026 RMK AO2 SLP215
T01501178 TSNO





000
SAUS45 KABQ 130152
MTRABQ
METAR KABQ 130152Z 24003KT 10SM CLR 14/M08 A3030 RMK AO2 SLP238
T01441083 $





000
SAUS45 KABQ 130054
MTRTCS
METAR KTCS 130053Z AUTO 00000KT 10SM CLR 20/M16 A3025 RMK AO2 SLP202
T02001156 TSNO





000
SAUS45 KABQ 130054
MTRCQC
METAR KCQC 130053Z AUTO VRB05KT 10SM CLR 12/M07 A3035 RMK AO2 SLP248
T01221067





000
SAUS45 KABQ 130054
MTRTCS
METAR KTCS 130053Z AUTO 00000KT 10SM CLR 20/M16 A3025 RMK AO2 SLP202
T02001156 TSNO





000
SAUS45 KABQ 130054
MTRCQC
METAR KCQC 130053Z AUTO VRB05KT 10SM CLR 12/M07 A3035 RMK AO2 SLP248
T01221067





000
SAUS45 KABQ 130052
MTRABQ
METAR KABQ 130052Z 00000KT 10SM CLR 17/M08 A3029 RMK AO2 SLP227
T01721078 $





000
SAUS45 KABQ 130052
MTRABQ
METAR KABQ 130052Z 00000KT 10SM CLR 17/M08 A3029 RMK AO2 SLP227
T01721078 $





000
SAUS45 KABQ 122358 COR
MTRCQC
METAR KCQC 122353Z AUTO 31005KT 10SM CLR 16/M07 A3034 RMK AO2 SLP225
T01611072 10178 20117 53002





000
SAUS45 KABQ 122358 COR
MTRCQC
METAR KCQC 122353Z AUTO 31005KT 10SM CLR 16/M07 A3034 RMK AO2 SLP225
T01611072 10178 20117 53002





000
SAUS45 KABQ 122356 COR
MTRCQC
METAR KCQC 122353Z AUTO 31005KT 10SM CLR 16/M07 A3034 RMK AO2 SLP225
T01611072 10178 20117 53002





000
SAUS45 KABQ 122356 COR
MTRCQC
METAR KCQC 122353Z AUTO 31005KT 10SM CLR 16/M07 A3034 RMK AO2 SLP225
T01611072 10178 20117 53002





000
SAUS45 KABQ 122355 COR
MTRCQC
METAR KCQC 122353Z AUTO 31005KT 10SM CLR 16/M07 A3034 RMK AO2 SLP225
T01611072 10178 20117 53002





000
SAUS45 KABQ 122355 COR
MTRCQC
METAR KCQC 122353Z AUTO 31005KT 10SM CLR 16/M07 A3034 RMK AO2 SLP225
T01611072 10178 20117 53002





000
SAUS45 KABQ 122354
MTRCQC
METAR KCQC 122353Z AUTO 31005KT 10SM CLR 16/M07 A3034 RMK AO2 SLP225
T01611072 10178 20117 53002





000
SAUS45 KABQ 122354
MTRTCS
METAR KTCS 122353Z AUTO 16004KT 10SM CLR 22/M17 A3025 RMK AO2 SLP195
T02171167 10228 20150 55005 TSNO





000
SAUS45 KABQ 122354
MTRCQC
METAR KCQC 122353Z AUTO 31005KT 10SM CLR 16/M07 A3034 RMK AO2 SLP225
T01611072 10178 20117 53002





000
SAUS45 KABQ 122354
MTRTCS
METAR KTCS 122353Z AUTO 16004KT 10SM CLR 22/M17 A3025 RMK AO2 SLP195
T02171167 10228 20150 55005 TSNO





000
SAUS45 KABQ 122353
MTRABQ
METAR KABQ 122352Z 15003KT 10SM CLR 19/M08 A3028 RMK AO2 SLP218
T01891078 10200 20117 56008 $





000
SAUS45 KABQ 122353
MTRABQ
METAR KABQ 122352Z 15003KT 10SM CLR 19/M08 A3028 RMK AO2 SLP218
T01891078 10200 20117 56008 $





000
SAUS45 KABQ 122254
MTRTCS
METAR KTCS 122253Z AUTO 12005KT 10SM CLR 22/M17 A3024 RMK AO2 SLP190
T02221167 TSNO





000
SAUS45 KABQ 122254
MTRTCS
METAR KTCS 122253Z AUTO 12005KT 10SM CLR 22/M17 A3024 RMK AO2 SLP190
T02221167 TSNO





000
SAUS45 KABQ 122254
MTRCQC
METAR KCQC 122253Z AUTO 29006KT 10SM CLR 17/M07 A3033 RMK AO2 SLP222
T01721072





000
SAUS45 KABQ 122254
MTRCQC
METAR KCQC 122253Z AUTO 29006KT 10SM CLR 17/M07 A3033 RMK AO2 SLP222
T01721072





000
SAUS45 KABQ 122252
MTRABQ
METAR KABQ 122252Z 00000KT 10SM CLR 19/M07 A3029 RMK AO2 SLP219
T01891072





000
SAUS45 KABQ 122155
MTRTCS
METAR KTCS 122153Z AUTO 13004KT 10SM CLR 22/M14 A3025 RMK AO2 SLP195
T02171144 TSNO





000
SAUS45 KABQ 122155
MTRTCS
METAR KTCS 122153Z AUTO 13004KT 10SM CLR 22/M14 A3025 RMK AO2 SLP195
T02171144 TSNO





000
SAUS45 KABQ 122154
MTRCQC
METAR KCQC 122153Z AUTO VRB04KT 10SM CLR 17/M08 A3033 RMK AO2 SLP218
T01721078





000
SAUS45 KABQ 122154
MTRCQC
METAR KCQC 122153Z AUTO VRB04KT 10SM CLR 17/M08 A3033 RMK AO2 SLP218
T01721078





000
SAUS45 KABQ 122152
MTRABQ
METAR KABQ 122152Z 26004KT 10SM CLR 19/M07 A3030 RMK AO2 SLP219
T01941072





000
SAUS45 KABQ 122054
MTRCQC
METAR KCQC 122053Z AUTO 34005KT 10SM CLR 17/M10 A3033 RMK AO2 SLP226
T01721100 58021





000
SAUS45 KABQ 122054
MTRCQC
METAR KCQC 122053Z AUTO 34005KT 10SM CLR 17/M10 A3033 RMK AO2 SLP226
T01721100 58021





000
SAUS45 KABQ 122054
MTRTCS
METAR KTCS 122053Z AUTO VRB03KT 10SM CLR 21/M13 A3027 RMK AO2 SLP198
T02061128 58030 TSNO





000
SAUS45 KABQ 122052
MTRABQ
METAR KABQ 122052Z 00000KT 10SM CLR 18/M07 A3031 RMK AO2 SLP228
T01781072 58028





000
SAUS45 KABQ 121955
MTRCQC
METAR KCQC 121953Z AUTO 29003KT 10SM CLR 15/M09 A3036 RMK AO2 SLP235
T01501094





000
SAUS45 KABQ 121954
MTRTCS
METAR KTCS 121953Z AUTO 36004KT 10SM CLR 20/M11 A3030 RMK AO2 SLP209
T02001111 TSNO





000
SAUS45 KABQ 121952
MTRABQ
METAR KABQ 121952Z 34005KT 10SM CLR 17/M08 A3034 RMK AO2 SLP234
T01671078





000
SAUS45 KABQ 121854
MTRCQC
METAR KCQC 121853Z AUTO 20004KT 10SM CLR 13/M09 A3039 RMK AO2 SLP253
T01331089





000
SAUS45 KABQ 121854
MTRTCS
METAR KTCS 121853Z AUTO 03005KT 10SM CLR 18/M10 A3034 RMK AO2 SLP227
T01831100 TSNO





000
SAUS45 KABQ 121852
MTRABQ
METAR KABQ 121852Z 34006KT 10SM CLR 15/M08 A3038 RMK AO2 SLP249
T01501078





000
SAUS45 KABQ 121754
MTRTCS
METAR KTCS 121753Z AUTO 04005KT 10SM CLR 15/M09 A3037 RMK AO2 SLP243
T01501089 10150 20028 50000 TSNO





000
SAUS45 KABQ 121754
MTRCQC
METAR KCQC 121753Z AUTO VRB03KT 10SM CLR 11/M08 A3041 RMK AO2 SLP263
T01111083 10111 20000 51007





000
SAUS45 KABQ 121754
MTRTCS
METAR KTCS 121753Z AUTO 04005KT 10SM CLR 15/M09 A3037 RMK AO2 SLP243
T01501089 10150 20028 50000 TSNO





000
SAUS45 KABQ 121754
MTRCQC
METAR KCQC 121753Z AUTO VRB03KT 10SM CLR 11/M08 A3041 RMK AO2 SLP263
T01111083 10111 20000 51007





000
SAUS45 KABQ 121752
MTRABQ
METAR KABQ 121752Z 30005KT 10SM CLR 11/M06 A3041 RMK AO2 SLP264
T01111061 10111 20000 58002





000
SAUS45 KABQ 121752
MTRABQ
METAR KABQ 121752Z 30005KT 10SM CLR 11/M06 A3041 RMK AO2 SLP264
T01111061 10111 20000 58002





000
SAUS45 KABQ 121654
MTRCQC
METAR KCQC 121653Z AUTO 11004KT 10SM CLR 10/M09 A3041 RMK AO2 SLP261
T01001089





000
SAUS45 KABQ 121654
MTRTCS
METAR KTCS 121653Z AUTO 03005KT 10SM CLR 12/M09 A3038 RMK AO2 SLP251
T01221094 TSNO





000
SAUS45 KABQ 121654
MTRCQC
METAR KCQC 121653Z AUTO 11004KT 10SM CLR 10/M09 A3041 RMK AO2 SLP261
T01001089





000
SAUS45 KABQ 121652
MTRABQ
METAR KABQ 121652Z 36005KT 10SM CLR 08/M06 A3041 RMK AO2 SLP274
T00781061





000
SAUS45 KABQ 121652
MTRABQ
METAR KABQ 121652Z 36005KT 10SM CLR 08/M06 A3041 RMK AO2 SLP274
T00781061





000
SAUS45 KABQ 121554
MTRCQC
METAR KCQC 121553Z AUTO 12006KT 10SM CLR 08/M08 A3039 RMK AO2 SLP270
T00781083





000
SAUS45 KABQ 121554
MTRTCS
METAR KTCS 121553Z AUTO 08003KT 10SM CLR 09/M10 A3038 RMK AO2 SLP256
T00891100 TSNO





000
SAUS45 KABQ 121552
MTRABQ
METAR KABQ 121552Z 32005KT 10SM CLR 06/M07 A3042 RMK AO2 SLP275
T00561067





000
SAUS45 KABQ 121552
MTRABQ
METAR KABQ 121552Z 32005KT 10SM CLR 06/M07 A3042 RMK AO2 SLP275
T00561067





000
SAUS45 KABQ 121454
MTRCQC
METAR KCQC 121453Z AUTO 00000KT 10SM CLR 06/M09 A3039 RMK AO2 SLP271
T00561089 52011





000
SAUS45 KABQ 121454
MTRTCS
METAR KTCS 121453Z AUTO 34003KT 10SM CLR 06/M10 A3037 RMK AO2 SLP252
T00611100 53013 TSNO





000
SAUS45 KABQ 121454
MTRCQC
METAR KCQC 121453Z AUTO 00000KT 10SM CLR 06/M09 A3039 RMK AO2 SLP271
T00561089 52011





000
SAUS45 KABQ 121454
MTRTCS
METAR KTCS 121453Z AUTO 34003KT 10SM CLR 06/M10 A3037 RMK AO2 SLP252
T00611100 53013 TSNO





000
SAUS45 KABQ 121453
MTRABQ
METAR KABQ 121452Z 03003KT 10SM CLR 02/M07 A3041 RMK AO2 SLP282
T00171067 51015





000
SAUS45 KABQ 121355
MTRTCS
METAR KTCS 121353Z AUTO 00000KT 10SM CLR 03/M11 A3035 RMK AO2 SLP247
T00331106 TSNO





000
SAUS45 KABQ 121354
MTRCQC
METAR KCQC 121353Z AUTO 11004KT 10SM CLR 03/M10 A3038 RMK AO2 SLP271
T00281100





000
SAUS45 KABQ 121352
MTRABQ
METAR KABQ 121352Z 28005KT 10SM CLR 01/M07 A3040 RMK AO2 SLP277
T00111067





000
SAUS45 KABQ 121254
MTRCQC
METAR KCQC 121253Z AUTO 34003KT 10SM CLR 00/M08 A3036 RMK AO2 SLP263
T00001083





000
SAUS45 KABQ 121254
MTRTCS
METAR KTCS 121253Z AUTO 35004KT 10SM CLR 04/M10 A3033 RMK AO2 SLP232
T00391100 TSNO





000
SAUS45 KABQ 121252
MTRABQ
METAR KABQ 121252Z 27003KT 10SM CLR 01/M08 A3038 RMK AO2 SLP263
T00111078





000
SAUS45 KABQ 121155
MTRTCS
METAR KTCS 121153Z AUTO 32008KT 10SM CLR 06/M10 A3032 RMK AO2 SLP221
T00611100 10111 20050 53003 TSNO





000
SAUS45 KABQ 121155
MTRTCS
METAR KTCS 121153Z AUTO 32008KT 10SM CLR 06/M10 A3032 RMK AO2 SLP221
T00611100 10111 20050 53003 TSNO





000
SAUS45 KABQ 121154
MTRCQC
METAR KCQC 121153Z AUTO 33007KT 10SM CLR 03/M09 A3035 RMK AO2 SLP238
T00281089 10033 20006 50005





000
SAUS45 KABQ 121154
MTRCQC
METAR KCQC 121153Z AUTO 33007KT 10SM CLR 03/M09 A3035 RMK AO2 SLP238
T00281089 10033 20006 50005





000
SAUS45 KABQ 121152
MTRABQ
METAR KABQ 121152Z 32006KT 10SM CLR 03/M07 A3036 RMK AO2 SLP249
T00281067 10100 20022 51002 $





000
SAUS45 KABQ 121152
MTRABQ
METAR KABQ 121152Z 32006KT 10SM CLR 03/M07 A3036 RMK AO2 SLP249
T00281067 10100 20022 51002 $





000
SAUS45 KABQ 121054
MTRCQC
METAR KCQC 121053Z AUTO 32008KT 10SM CLR 02/M08 A3036 RMK AO2 SLP240
T00171078





000
SAUS45 KABQ 121054
MTRTCS
METAR KTCS 121053Z AUTO 32007KT 10SM CLR 07/M11 A3032 RMK AO2 SLP219
T00671106 TSNO





000
SAUS45 KABQ 121052
MTRABQ
METAR KABQ 121052Z 24004KT 10SM CLR 03/M07 A3036 RMK AO2 SLP247
T00281072 $





000
SAUS45 KABQ 120954
MTRTCS
METAR KTCS 120953Z AUTO 32006KT 10SM CLR 06/M11 A3032 RMK AO2 SLP220
T00611111 TSNO





000
SAUS45 KABQ 120954
MTRCQC
METAR KCQC 120953Z AUTO 32011KT 10SM CLR 02/M08 A3033 RMK AO2 SLP230
T00221078





000
SAUS45 KABQ 120953
MTRABQ
METAR KABQ 120952Z 03005KT 10SM CLR 04/M07 A3036 RMK AO2 SLP245
T00441067 $





000
SAUS45 KABQ 120854
MTRCQC
METAR KCQC 120853Z AUTO 30012KT 10SM CLR 01/M07 A3033 RMK AO2 SLP231
T00061072 53004





000
SAUS45 KABQ 120854
MTRTCS
METAR KTCS 120853Z AUTO 33005KT 10SM CLR 08/M11 A3031 RMK AO2 SLP218
T00781111 53008 TSNO





000
SAUS45 KABQ 120854
MTRTCS
METAR KTCS 120853Z AUTO 33005KT 10SM CLR 08/M11 A3031 RMK AO2 SLP218
T00781111 53008 TSNO





000
SAUS45 KABQ 120854
MTRCQC
METAR KCQC 120853Z AUTO 30012KT 10SM CLR 01/M07 A3033 RMK AO2 SLP231
T00061072 53004





000
SAUS45 KABQ 120852
MTRABQ
METAR KABQ 120852Z 08005KT 10SM CLR 04/M07 A3036 RMK AO2 SLP245
T00441072 53004 $





000
SAUS45 KABQ 120852
MTRABQ
METAR KABQ 120852Z 08005KT 10SM CLR 04/M07 A3036 RMK AO2 SLP245
T00441072 53004 $





000
SAUS45 KABQ 120755
MTRCQC
METAR KCQC 120753Z AUTO 31012KT 10SM CLR 03/M07 A3031 RMK AO2 SLP220
T00281072





000
SAUS45 KABQ 120754
MTRTCS
METAR KTCS 120753Z AUTO 32010KT 10SM CLR 10/M11 A3029 RMK AO2 SLP208
T01001106 TSNO





000
SAUS45 KABQ 120752
MTRABQ
METAR KABQ 120752Z 02004KT 10SM CLR 08/M08 A3034 RMK AO2 SLP238
T00781078





000
SAUS45 KABQ 120654
MTRTCS
METAR KTCS 120653Z AUTO 30011KT 10SM CLR 09/M11 A3028 RMK AO2 SLP211
T00941106 402110017 TSNO





000
SAUS45 KABQ 120654
MTRTCS
METAR KTCS 120653Z AUTO 30011KT 10SM CLR 09/M11 A3028 RMK AO2 SLP211
T00941106 402110017 TSNO





000
SAUS45 KABQ 120654
MTRCQC
METAR KCQC 120653Z AUTO 30012KT 10SM CLR 02/M07 A3032 RMK AO2 SLP230
T00221067 401501011





000
SAUS45 KABQ 120654
MTRCQC
METAR KCQC 120653Z AUTO 30012KT 10SM CLR 02/M07 A3032 RMK AO2 SLP230
T00221067 401501011





000
SAUS45 KABQ 120652
MTRABQ
METAR KABQ 120652Z 33010KT 10SM CLR 09/M08 A3034 RMK AO2 SLP238
T00941083 401940000





000
SAUS45 KABQ 120652
MTRABQ
METAR KABQ 120652Z 33010KT 10SM CLR 09/M08 A3034 RMK AO2 SLP238
T00941083 401940000





000
SAUS45 KABQ 120554
MTRCQC
METAR KCQC 120553Z AUTO 29012KT 10SM CLR 03/M07 A3031 RMK AO2 SLP235
T00281067 10122 20022 50003





000
SAUS45 KABQ 120554
MTRTCS
METAR KTCS 120553Z AUTO 33005KT 10SM CLR 08/M12 A3029 RMK AO2 SLP215
T00781117 10206 20072 53007 TSNO





000
SAUS45 KABQ 120554
MTRTCS
METAR KTCS 120553Z AUTO 33005KT 10SM CLR 08/M12 A3029 RMK AO2 SLP215
T00781117 10206 20072 53007 TSNO





000
SAUS45 KABQ 120554
MTRCQC
METAR KCQC 120553Z AUTO 29012KT 10SM CLR 03/M07 A3031 RMK AO2 SLP235
T00281067 10122 20022 50003





000
SAUS45 KABQ 120552
MTRABQ
METAR KABQ 120552Z 34007KT 10SM CLR 09/M08 A3034 RMK AO2 SLP240
T00941078 10183 20089 53008





000
SAUS45 KABQ 120552
MTRABQ
METAR KABQ 120552Z 34007KT 10SM CLR 09/M08 A3034 RMK AO2 SLP240
T00941078 10183 20089 53008





000
SAUS45 KABQ 120454
MTRTCS
METAR KTCS 120453Z AUTO 30008KT 10SM CLR 10/M12 A3027 RMK AO2 SLP212
T01001117 TSNO





000
SAUS45 KABQ 120454
MTRCQC
METAR KCQC 120453Z AUTO 31013KT 10SM CLR 04/M07 A3032 RMK AO2 SLP242
T00391072





000
SAUS45 KABQ 120454
MTRTCS
METAR KTCS 120453Z AUTO 30008KT 10SM CLR 10/M12 A3027 RMK AO2 SLP212
T01001117 TSNO





000
SAUS45 KABQ 120454
MTRCQC
METAR KCQC 120453Z AUTO 31013KT 10SM CLR 04/M07 A3032 RMK AO2 SLP242
T00391072





000
SAUS45 KABQ 120452
MTRABQ
METAR KABQ 120452Z 02004KT 10SM CLR 09/M08 A3033 RMK AO2 SLP243
T00941078





000
SAUS45 KABQ 120354
MTRCQC
METAR KCQC 120353Z AUTO 30013KT 10SM CLR 02/M08 A3031 RMK AO2 SLP244
T00221078





000
SAUS45 KABQ 120354
MTRTCS
METAR KTCS 120353Z AUTO 31008KT 10SM CLR 10/M12 A3027 RMK AO2 SLP216
T01001117 TSNO





000
SAUS45 KABQ 120353
MTRABQ
METAR KABQ 120352Z 35008KT 10SM CLR 12/M08 A3032 RMK AO2 SLP244
T01171083





000
SAUS45 KABQ 120353
MTRABQ
METAR KABQ 120352Z 35008KT 10SM CLR 12/M08 A3032 RMK AO2 SLP244
T01171083





000
SAUS45 KABQ 120254
MTRTCS
METAR KTCS 120253Z AUTO 00000KT 10SM CLR 12/M13 A3026 RMK AO2 SLP216
T01221128 51010 TSNO





000
SAUS45 KABQ 120254
MTRCQC
METAR KCQC 120253Z AUTO 30013KT 10SM CLR 03/M08 A3030 RMK AO2 SLP244
T00281078 51009





000
SAUS45 KABQ 120253
MTRABQ
METAR KABQ 120252Z 36007KT 10SM CLR 12/M08 A3032 RMK AO2 SLP250
T01221078 51016





000
SAUS45 KABQ 120253
MTRABQ
METAR KABQ 120252Z 36007KT 10SM CLR 12/M08 A3032 RMK AO2 SLP250
T01221078 51016





000
SAUS45 KABQ 120154
MTRCQC
METAR KCQC 120153Z AUTO 29013KT 10SM CLR 05/M08 A3030 RMK AO2 SLP247
T00501078





000
SAUS45 KABQ 120154
MTRTCS
METAR KTCS 120153Z AUTO 17004KT 10SM CLR 16/M13 A3026 RMK AO2 SLP211
T01561128 TSNO





000
SAUS45 KABQ 120154
MTRTCS
METAR KTCS 120153Z AUTO 17004KT 10SM CLR 16/M13 A3026 RMK AO2 SLP211
T01561128 TSNO





000
SAUS45 KABQ 120154
MTRCQC
METAR KCQC 120153Z AUTO 29013KT 10SM CLR 05/M08 A3030 RMK AO2 SLP247
T00501078





000
SAUS45 KABQ 120152
MTRABQ
METAR KABQ 120152Z 02008KT 10SM SCT250 13/M08 A3031 RMK AO2 SLP245
T01281078





000
SAUS45 KABQ 120152
MTRABQ
METAR KABQ 120152Z 02008KT 10SM SCT250 13/M08 A3031 RMK AO2 SLP245
T01281078





000
SAUS45 KABQ 120054
MTRCQC
METAR KCQC 120053Z AUTO 30015KT 10SM CLR 07/M06 A3029 RMK AO2 SLP238
T00721061





000
SAUS45 KABQ 120054
MTRCQC
METAR KCQC 120053Z AUTO 30015KT 10SM CLR 07/M06 A3029 RMK AO2 SLP238
T00721061





000
SAUS45 KABQ 120054
MTRTCS
METAR KTCS 120053Z AUTO 12003KT 10SM CLR 18/M12 A3025 RMK AO2 SLP201
T01831122 TSNO





000
SAUS45 KABQ 120054
MTRTCS
METAR KTCS 120053Z AUTO 12003KT 10SM CLR 18/M12 A3025 RMK AO2 SLP201
T01831122 TSNO





000
SAUS45 KABQ 120053
MTRABQ
METAR KABQ 120052Z 33011KT 10SM SCT250 17/M11 A3028 RMK AO2 SLP223
T01671111 $





000
SAUS45 KABQ 120053
MTRABQ
METAR KABQ 120052Z 33011KT 10SM SCT250 17/M11 A3028 RMK AO2 SLP223
T01671111 $





000
SAUS45 KABQ 112358 COR
MTRCQC
METAR KCQC 112353Z AUTO 29014KT 10SM CLR 12/M09 A3027 RMK AO2 SLP219
T01221089 10150 20089 53004





000
SAUS45 KABQ 112358 COR
MTRCQC
METAR KCQC 112353Z AUTO 29014KT 10SM CLR 12/M09 A3027 RMK AO2 SLP219
T01221089 10150 20089 53004





000
SAUS45 KABQ 112356 COR
MTRCQC
METAR KCQC 112353Z AUTO 29014KT 10SM CLR 12/M09 A3027 RMK AO2 SLP219
T01221089 10150 20089 53004





000
SAUS45 KABQ 112356 COR
MTRCQC
METAR KCQC 112353Z AUTO 29014KT 10SM CLR 12/M09 A3027 RMK AO2 SLP219
T01221089 10150 20089 53004





000
SAUS45 KABQ 112355 COR
MTRCQC
METAR KCQC 112353Z AUTO 29014KT 10SM CLR 12/M09 A3027 RMK AO2 SLP219
T01221089 10150 20089 53004





000
SAUS45 KABQ 112355 COR
MTRCQC
METAR KCQC 112353Z AUTO 29014KT 10SM CLR 12/M09 A3027 RMK AO2 SLP219
T01221089 10150 20089 53004





000
SAUS45 KABQ 112354
MTRTCS
METAR KTCS 112353Z AUTO 12003KT 10SM CLR 21/M13 A3023 RMK AO2 SLP194
T02111128 10211 20150 53000 TSNO





000
SAUS45 KABQ 112354
MTRCQC
METAR KCQC 112353Z AUTO 29014KT 10SM CLR 12/M09 A3027 RMK AO2 SLP219
T01221089 10150 20089 53004





000
SAUS45 KABQ 112352
MTRABQ
METAR KABQ 112352Z 31008KT 10SM FEW250 18/M11 A3026 RMK AO2 SLP211
T01831106 10194 20122 55004 $





000
SAUS45 KABQ 112254
MTRCQC
METAR KCQC 112253Z AUTO 30016KT 10SM CLR 14/M10 A3026 RMK AO2 SLP212
T01391100





000
SAUS45 KABQ 112254
MTRTCS
METAR KTCS 112253Z AUTO 00000KT 10SM CLR 21/M12 A3022 RMK AO2 SLP187
T02111122 TSNO





000
SAUS45 KABQ 112252
MTRABQ
METAR KABQ 112252Z 33010KT 10SM FEW250 19/M12 A3025 RMK AO2 SLP206
T01891122 $





000
SAUS45 KABQ 112154
MTRTCS
METAR KTCS 112153Z AUTO VRB03KT 10SM CLR 21/M11 A3022 RMK AO2 SLP185
T02061111 TSNO





000
SAUS45 KABQ 112154
MTRCQC
METAR KCQC 112153Z AUTO 31014KT 10SM CLR 14/M10 A3026 RMK AO2 SLP206
T01441100





000
SAUS45 KABQ 112153
MTRABQ
METAR KABQ 112152Z 26004KT 10SM FEW250 18/M09 A3025 RMK AO2 SLP204
T01831094 $





    US Dept of Commerce
    National Oceanic and Atmospheric Administration
    National Weather Service
    1325 East West Highway
    Silver Spring, MD 20910
    Page Author: NWS Internet Services Team
Disclaimer
Information Quality
Credits
Glossary
Privacy Policy
Freedom of Information Act (FOIA)
About Us
Career Opportunities